sensor_id;sensor_type;location;lat;lon;timestamp;P1;durP1;ratioP1;P2;durP2;ratioP2
68168;SDS011;54981;50.206;15.978;2022-12-18T16:49:30;70.18;;;53.92;;
68168;SDS011;54981;50.206;15.978;2022-12-18T16:52:30;65.20;;;56.42;;
68168;SDS011;54981;50.206;15.978;2022-12-18T16:55:31;73.25;;;60.72;;
68168;SDS011;54981;50.206;15.978;2022-12-18T16:58:31;76.05;;;60.22;;
68168;SDS011;54981;50.206;15.978;2022-12-18T17:01:32;77.95;;;61.45;;
68168;SDS011;54981;50.206;15.978;2022-12-18T17:04:32;70.63;;;57.60;;
68168;SDS011;54981;50.206;15.978;2022-12-18T17:07:33;71.88;;;56.28;;
68168;SDS011;54981;50.206;15.978;2022-12-18T17:10:34;79.95;;;62.03;;
68168;SDS011;54981;50.206;15.978;2022-12-18T17:13:35;133.35;;;91.63;;
68168;SDS011;54981;50.206;15.978;2022-12-18T17:16:35;105.00;;;77.78;;
68168;SDS011;54981;50.206;15.978;2022-12-18T17:19:35;82.82;;;63.83;;
68168;SDS011;54981;50.206;15.978;2022-12-18T17:22:36;78.47;;;58.67;;
68168;SDS011;54981;50.206;15.978;2022-12-18T17:25:38;78.55;;;62.13;;
68168;SDS011;54981;50.206;15.978;2022-12-18T17:28:39;92.88;;;68.88;;
68168;SDS011;54981;50.206;15.978;2022-12-18T17:31:41;70.43;;;55.90;;
68168;SDS011;54981;50.206;15.978;2022-12-18T17:34:41;68.05;;;52.95;;
68168;SDS011;54981;50.206;15.978;2022-12-18T17:37:42;71.82;;;55.90;;
68168;SDS011;54981;50.206;15.978;2022-12-18T17:40:42;67.32;;;52.88;;
68168;SDS011;54981;50.206;15.978;2022-12-18T17:43:42;62.92;;;51.17;;
68168;SDS011;54981;50.206;15.978;2022-12-18T17:46:44;68.53;;;54.28;;
68168;SDS011;54981;50.206;15.978;2022-12-18T17:49:45;69.47;;;53.13;;
68168;SDS011;54981;50.206;15.978;2022-12-18T17:52:45;72.82;;;54.70;;
68168;SDS011;54981;50.206;15.978;2022-12-18T17:55:53;67.63;;;53.28;;
68168;SDS011;54981;50.206;15.978;2022-12-18T17:58:54;73.68;;;52.90;;
68168;SDS011;54981;50.206;15.978;2022-12-18T18:01:54;84.72;;;60.38;;
68168;SDS011;54981;50.206;15.978;2022-12-18T18:04:55;88.88;;;67.70;;
68168;SDS011;54981;50.206;15.978;2022-12-18T18:07:55;93.80;;;69.25;;
68168;SDS011;54981;50.206;15.978;2022-12-18T18:10:56;88.85;;;64.68;;
68168;SDS011;54981;50.206;15.978;2022-12-18T18:14:17;91.57;;;66.28;;
68168;SDS011;54981;50.206;15.978;2022-12-18T18:17:19;90.65;;;67.03;;
68168;SDS011;54981;50.206;15.978;2022-12-18T18:20:19;99.57;;;73.50;;
68168;SDS011;54981;50.206;15.978;2022-12-18T18:23:20;91.82;;;64.95;;
68168;SDS011;54981;50.206;15.978;2022-12-18T18:26:21;91.43;;;68.50;;
68168;SDS011;54981;50.206;15.978;2022-12-18T18:29:23;98.53;;;69.43;;
68168;SDS011;54981;50.206;15.978;2022-12-18T18:32:24;98.50;;;70.68;;
68168;SDS011;54981;50.206;15.978;2022-12-18T18:35:24;106.10;;;75.93;;
68168;SDS011;54981;50.206;15.978;2022-12-18T18:38:24;110.22;;;79.05;;
68168;SDS011;54981;50.206;15.978;2022-12-18T18:41:25;116.28;;;81.38;;
68168;SDS011;54981;50.206;15.978;2022-12-18T18:44:26;116.20;;;82.32;;
68168;SDS011;54981;50.206;15.978;2022-12-18T18:47:28;117.55;;;83.82;;
68168;SDS011;54981;50.206;15.978;2022-12-18T18:50:29;155.70;;;102.65;;
68168;SDS011;54981;50.206;15.978;2022-12-18T18:53:30;122.90;;;87.53;;
68168;SDS011;54981;50.206;15.978;2022-12-18T18:56:34;150.95;;;111.40;;
68168;SDS011;54981;50.206;15.978;2022-12-18T18:59:34;149.00;;;105.80;;
68168;SDS011;54981;50.206;15.978;2022-12-18T19:02:35;141.35;;;98.63;;
68168;SDS011;54981;50.206;15.978;2022-12-18T19:05:35;139.68;;;99.53;;
68168;SDS011;54981;50.206;15.978;2022-12-18T19:08:36;114.15;;;80.78;;
68168;SDS011;54981;50.206;15.978;2022-12-18T19:11:37;88.70;;;63.63;;
68168;SDS011;54981;50.206;15.978;2022-12-18T19:14:56;83.45;;;61.60;;
68168;SDS011;54981;50.206;15.978;2022-12-18T19:17:57;84.93;;;60.25;;
68168;SDS011;54981;50.206;15.978;2022-12-18T19:20:58;101.18;;;70.90;;
68168;SDS011;54981;50.206;15.978;2022-12-18T19:24:00;120.78;;;80.30;;
68168;SDS011;54981;50.206;15.978;2022-12-18T19:27:01;117.05;;;77.43;;
68168;SDS011;54981;50.206;15.978;2022-12-18T19:30:02;134.57;;;95.30;;
68168;SDS011;54981;50.206;15.978;2022-12-18T19:33:02;141.63;;;90.28;;
68168;SDS011;54981;50.206;15.978;2022-12-18T19:39:13;98.18;;;66.63;;
68168;SDS011;54981;50.206;15.978;2022-12-18T19:42:14;98.77;;;64.27;;
68168;SDS011;54981;50.206;15.978;2022-12-18T19:45:15;103.00;;;69.82;;
68168;SDS011;54981;50.206;15.978;2022-12-18T19:48:15;102.25;;;65.03;;
68168;SDS011;54981;50.206;15.978;2022-12-18T19:51:17;90.40;;;60.65;;
68168;SDS011;54981;50.206;15.978;2022-12-18T19:54:18;89.25;;;60.80;;
68168;SDS011;54981;50.206;15.978;2022-12-18T19:57:18;88.25;;;58.85;;
68168;SDS011;54981;50.206;15.978;2022-12-18T20:00:18;80.93;;;55.28;;
68168;SDS011;54981;50.206;15.978;2022-12-18T20:03:19;83.72;;;57.15;;
68168;SDS011;54981;50.206;15.978;2022-12-18T20:09:25;87.50;;;63.55;;
68168;SDS011;54981;50.206;15.978;2022-12-18T20:12:26;89.68;;;58.80;;
68168;SDS011;54981;50.206;15.978;2022-12-18T20:15:26;106.47;;;68.57;;
68168;SDS011;54981;50.206;15.978;2022-12-18T20:18:27;98.53;;;70.03;;
68168;SDS011;54981;50.206;15.978;2022-12-18T20:21:27;88.43;;;61.20;;
68168;SDS011;54981;50.206;15.978;2022-12-18T20:24:27;87.85;;;61.42;;
68168;SDS011;54981;50.206;15.978;2022-12-18T20:27:28;76.10;;;57.47;;
68168;SDS011;54981;50.206;15.978;2022-12-18T20:30:28;84.70;;;56.28;;
68168;SDS011;54981;50.206;15.978;2022-12-18T20:33:29;83.55;;;54.50;;
68168;SDS011;54981;50.206;15.978;2022-12-18T20:36:29;74.80;;;52.45;;
68168;SDS011;54981;50.206;15.978;2022-12-18T20:39:30;76.63;;;55.30;;
68168;SDS011;54981;50.206;15.978;2022-12-18T20:42:30;84.13;;;55.13;;
68168;SDS011;54981;50.206;15.978;2022-12-18T20:45:30;82.40;;;57.95;;
68168;SDS011;54981;50.206;15.978;2022-12-18T20:48:31;81.97;;;58.72;;
68168;SDS011;54981;50.206;15.978;2022-12-18T20:51:31;93.53;;;63.40;;
68168;SDS011;54981;50.206;15.978;2022-12-18T20:54:33;89.20;;;57.60;;
68168;SDS011;54981;50.206;15.978;2022-12-18T20:57:34;92.47;;;61.03;;
68168;SDS011;54981;50.206;15.978;2022-12-18T21:00:34;89.55;;;63.67;;
68168;SDS011;54981;50.206;15.978;2022-12-18T21:03:34;104.90;;;65.20;;
68168;SDS011;54981;50.206;15.978;2022-12-18T21:06:35;95.38;;;65.82;;
68168;SDS011;54981;50.206;15.978;2022-12-18T21:09:36;108.82;;;67.50;;
68168;SDS011;54981;50.206;15.978;2022-12-18T21:12:36;115.60;;;77.18;;
68168;SDS011;54981;50.206;15.978;2022-12-18T21:15:45;102.90;;;68.82;;
68168;SDS011;54981;50.206;15.978;2022-12-18T21:18:45;92.53;;;64.85;;
68168;SDS011;54981;50.206;15.978;2022-12-18T21:21:46;91.30;;;58.00;;
68168;SDS011;54981;50.206;15.978;2022-12-18T21:24:46;88.15;;;57.70;;
68168;SDS011;54981;50.206;15.978;2022-12-18T21:27:47;82.85;;;58.50;;
68168;SDS011;54981;50.206;15.978;2022-12-18T21:30:47;81.85;;;57.33;;
68168;SDS011;54981;50.206;15.978;2022-12-18T21:33:48;85.43;;;56.10;;
68168;SDS011;54981;50.206;15.978;2022-12-18T21:36:49;84.13;;;58.63;;
68168;SDS011;54981;50.206;15.978;2022-12-18T21:39:49;88.93;;;56.95;;
68168;SDS011;54981;50.206;15.978;2022-12-18T21:42:49;84.45;;;59.80;;
68168;SDS011;54981;50.206;15.978;2022-12-18T21:46:08;96.95;;;61.17;;
68168;SDS011;54981;50.206;15.978;2022-12-18T21:49:09;96.78;;;66.85;;
68168;SDS011;54981;50.206;15.978;2022-12-18T21:52:10;91.38;;;66.80;;
68168;SDS011;54981;50.206;15.978;2022-12-18T21:55:11;81.60;;;57.40;;
68168;SDS011;54981;50.206;15.978;2022-12-18T21:58:11;89.78;;;63.75;;
68168;SDS011;54981;50.206;15.978;2022-12-18T22:01:12;88.63;;;63.45;;
68168;SDS011;54981;50.206;15.978;2022-12-18T22:04:12;92.05;;;62.35;;
68168;SDS011;54981;50.206;15.978;2022-12-18T22:07:14;94.78;;;63.55;;
68168;SDS011;54981;50.206;15.978;2022-12-18T22:10:15;90.97;;;58.35;;
68168;SDS011;54981;50.206;15.978;2022-12-18T22:13:15;87.28;;;61.95;;
68168;SDS011;54981;50.206;15.978;2022-12-18T22:16:16;92.63;;;63.85;;
68168;SDS011;54981;50.206;15.978;2022-12-18T22:19:16;94.30;;;62.53;;
68168;SDS011;54981;50.206;15.978;2022-12-18T22:22:17;81.60;;;59.63;;
68168;SDS011;54981;50.206;15.978;2022-12-18T22:25:18;91.07;;;60.60;;
68168;SDS011;54981;50.206;15.978;2022-12-18T22:28:18;86.80;;;59.33;;
68168;SDS011;54981;50.206;15.978;2022-12-18T22:31:37;78.13;;;57.85;;
68168;SDS011;54981;50.206;15.978;2022-12-18T22:34:37;84.15;;;59.08;;
68168;SDS011;54981;50.206;15.978;2022-12-18T22:37:38;88.75;;;56.55;;
68168;SDS011;54981;50.206;15.978;2022-12-18T22:40:38;82.70;;;57.70;;
68168;SDS011;54981;50.206;15.978;2022-12-18T22:43:39;80.05;;;53.72;;
68168;SDS011;54981;50.206;15.978;2022-12-18T22:46:40;78.82;;;54.40;;
68168;SDS011;54981;50.206;15.978;2022-12-18T22:49:44;75.75;;;53.05;;
68168;SDS011;54981;50.206;15.978;2022-12-18T22:52:44;80.18;;;59.08;;
68168;SDS011;54981;50.206;15.978;2022-12-18T22:55:44;85.18;;;58.25;;
68168;SDS011;54981;50.206;15.978;2022-12-18T22:58:48;79.50;;;57.78;;
68168;SDS011;54981;50.206;15.978;2022-12-18T23:01:49;84.32;;;57.60;;
68168;SDS011;54981;50.206;15.978;2022-12-18T23:04:50;80.70;;;57.05;;
68168;SDS011;54981;50.206;15.978;2022-12-18T23:07:51;80.20;;;57.97;;
68168;SDS011;54981;50.206;15.978;2022-12-18T23:10:51;78.40;;;58.22;;
68168;SDS011;54981;50.206;15.978;2022-12-18T23:13:52;83.50;;;54.67;;
68168;SDS011;54981;50.206;15.978;2022-12-18T23:16:52;84.57;;;56.15;;
68168;SDS011;54981;50.206;15.978;2022-12-18T23:19:53;83.28;;;58.22;;
68168;SDS011;54981;50.206;15.978;2022-12-18T23:22:53;86.38;;;56.53;;
68168;SDS011;54981;50.206;15.978;2022-12-18T23:26:01;79.53;;;53.80;;
68168;SDS011;54981;50.206;15.978;2022-12-18T23:29:08;84.35;;;56.50;;
68168;SDS011;54981;50.206;15.978;2022-12-18T23:32:09;77.32;;;52.75;;
68168;SDS011;54981;50.206;15.978;2022-12-18T23:35:09;75.38;;;50.78;;
68168;SDS011;54981;50.206;15.978;2022-12-18T23:38:09;76.07;;;52.05;;
68168;SDS011;54981;50.206;15.978;2022-12-18T23:41:11;79.07;;;55.70;;
68168;SDS011;54981;50.206;15.978;2022-12-18T23:44:14;75.20;;;52.23;;
68168;SDS011;54981;50.206;15.978;2022-12-18T23:47:14;74.90;;;51.40;;
68168;SDS011;54981;50.206;15.978;2022-12-18T23:50:14;78.93;;;55.33;;
68168;SDS011;54981;50.206;15.978;2022-12-18T23:53:14;77.35;;;52.92;;
68168;SDS011;54981;50.206;15.978;2022-12-18T23:56:15;75.38;;;52.78;;
68168;SDS011;54981;50.206;15.978;2022-12-18T23:59:15;78.10;;;52.80;;
